createdAt,value
2023-04-05T00:01:21.683Z,-0.27
2023-04-05T00:05:30.374Z,-0.24
2023-04-05T00:09:32.377Z,-0.26
2023-04-05T00:13:34.410Z,-0.31
2023-04-05T00:17:36.443Z,-0.32
2023-04-05T00:21:39.584Z,-0.35
2023-04-05T00:25:41.585Z,-0.44
2023-04-05T00:29:43.578Z,-0.46
2023-04-05T00:33:46.410Z,-0.56
2023-04-05T00:37:48.490Z,-0.61
2023-04-05T00:41:50.545Z,-0.72
2023-04-05T00:45:53.291Z,-0.91
2023-04-05T00:49:55.422Z,-0.89
2023-04-05T00:53:57.907Z,-0.80
2023-04-05T00:58:00.486Z,-0.85
2023-04-05T01:02:17.097Z,-0.88
2023-04-05T01:06:44.168Z,-0.85
2023-04-05T01:10:55.210Z,-0.84
2023-04-05T01:14:57.584Z,-0.85
2023-04-05T01:18:59.739Z,-0.85
2023-04-05T01:23:16.478Z,-0.88
2023-04-05T01:27:45.760Z,-0.95
2023-04-05T01:31:54.369Z,-1.09
2023-04-05T01:36:08.758Z,-1.22
2023-04-05T01:40:11.309Z,-1.23
2023-04-05T01:44:13.297Z,-1.26
2023-04-05T01:48:15.329Z,-1.30
2023-04-05T01:52:18.098Z,-1.37
2023-04-05T01:56:20.879Z,-1.39
2023-04-05T02:00:23.264Z,-1.40
2023-04-05T02:04:26.298Z,-1.41
2023-04-05T02:08:28.348Z,-1.40
2023-04-05T02:12:30.522Z,-1.48
2023-04-05T02:16:34.163Z,-1.51
2023-04-05T02:20:36.289Z,-1.56
2023-04-05T02:24:38.350Z,-1.70
2023-04-05T02:28:40.695Z,-1.74
2023-04-05T02:32:42.744Z,-1.68
2023-04-05T02:36:45.240Z,-1.77
2023-04-05T02:40:49.453Z,-2.00
2023-04-05T02:44:52.547Z,-2.08
2023-04-05T02:48:56.356Z,-2.05
2023-04-05T02:53:00.800Z,-2.08
2023-04-05T02:57:04.383Z,-2.15
2023-04-05T03:01:17.736Z,-2.10
2023-04-05T03:05:22.538Z,-2.05
2023-04-05T03:09:27.602Z,-2.04
2023-04-05T03:13:34.079Z,-2.01
2023-04-05T03:17:38.751Z,-1.96
2023-04-05T03:21:42.122Z,-2.16
2023-04-05T03:26:01.640Z,-2.27
2023-04-05T03:30:07.604Z,-2.37
2023-04-05T03:34:14.640Z,-2.42
2023-04-05T03:38:21.383Z,-2.39
2023-04-05T03:42:41.520Z,-2.31
2023-04-05T03:46:43.991Z,-2.45
2023-04-05T03:50:48.992Z,-2.54
2023-04-05T03:54:51.412Z,-2.48
2023-04-05T03:58:57.445Z,-2.44
2023-04-05T04:03:04.100Z,-2.38
2023-04-05T04:07:06.341Z,-2.48
2023-04-05T04:11:09.296Z,-2.55
2023-04-05T04:15:14.174Z,-2.66
2023-04-05T04:19:33.219Z,-2.81
2023-04-05T04:23:40.599Z,-2.90
2023-04-05T04:28:21.187Z,-3.04
2023-04-05T04:32:52.054Z,-3.15
2023-04-05T04:37:17.789Z,-3.14
2023-04-05T04:41:47.010Z,-3.16
2023-04-05T04:46:11.726Z,-3.17
2023-04-05T04:50:28.640Z,-3.06
2023-04-05T04:54:34.140Z,-3.07
2023-04-05T04:58:36.127Z,-3.11
2023-04-05T05:02:44.066Z,-3.10
2023-04-05T05:06:53.992Z,-2.96
2023-04-05T05:10:56.551Z,-2.90
2023-04-05T05:14:58.865Z,-2.91
2023-04-05T05:19:01.574Z,-2.79
2023-04-05T05:23:13.325Z,-2.70
2023-04-05T05:27:15.483Z,-2.63
2023-04-05T05:31:17.841Z,-2.74
2023-04-05T05:35:20.096Z,-2.82
2023-04-05T05:39:23.443Z,-2.69
2023-04-05T05:43:25.848Z,-2.46
2023-04-05T05:47:27.986Z,-2.25
2023-04-05T05:51:30.061Z,-2.15
2023-04-05T05:55:32.114Z,-1.96
2023-04-05T05:59:34.138Z,-1.76
2023-04-05T06:03:36.267Z,-1.62
2023-04-05T06:07:38.481Z,-1.48
2023-04-05T06:11:53.307Z,-1.32
2023-04-05T06:15:57.586Z,-1.18
2023-04-05T06:19:59.602Z,0.96
2023-04-05T06:24:01.636Z,2.51
2023-04-05T06:28:05.226Z,3.29
2023-04-05T06:32:07.272Z,7.58
2023-04-05T06:36:09.795Z,10.67
2023-04-05T06:40:12.551Z,12.51
2023-04-05T06:44:14.569Z,13.79
2023-04-05T06:48:16.612Z,14.40
2023-04-05T06:52:18.592Z,14.38
2023-04-05T06:56:21.647Z,13.78
2023-04-05T07:00:23.758Z,10.70
2023-04-05T07:04:26.696Z,7.06
2023-04-05T07:08:31.411Z,4.50
2023-04-05T07:12:33.408Z,3.10
2023-04-05T07:16:35.584Z,2.36
2023-04-05T07:20:38.007Z,2.11
2023-04-05T07:24:40.084Z,2.03
2023-04-05T07:28:42.308Z,1.89
2023-04-05T07:32:44.415Z,1.82
2023-04-05T07:36:47.000Z,1.78
2023-04-05T07:40:50.170Z,1.87
2023-04-05T07:44:52.117Z,1.91
2023-04-05T07:48:54.425Z,2.02
2023-04-05T07:52:56.420Z,2.13
2023-04-05T07:56:58.501Z,2.27
2023-04-05T08:01:04.894Z,2.42
2023-04-05T08:05:07.339Z,2.47
2023-04-05T08:09:10.714Z,2.62
2023-04-05T08:13:12.764Z,2.66
2023-04-05T08:17:16.209Z,2.85
2023-04-05T08:21:18.182Z,2.95
2023-04-05T08:25:20.339Z,2.95
2023-04-05T08:29:22.349Z,3.02
2023-04-05T08:33:26.412Z,3.11
2023-04-05T08:37:28.495Z,3.19
2023-04-05T08:41:37.365Z,3.19
2023-04-05T08:45:46.734Z,3.24
2023-04-05T08:49:49.014Z,3.31
2023-04-05T08:53:51.218Z,3.38
2023-04-05T08:57:58.925Z,3.39
2023-04-05T09:02:04.100Z,3.35
2023-04-05T09:06:09.120Z,3.46
2023-04-05T09:10:13.535Z,3.57
2023-04-05T09:14:16.589Z,3.63
2023-04-05T09:18:26.165Z,3.65
2023-04-05T09:22:29.411Z,3.72
2023-04-05T09:26:32.500Z,3.87
2023-04-05T09:30:37.263Z,3.92
2023-04-05T09:34:42.135Z,3.95
2023-04-05T09:38:51.239Z,3.95
2023-04-05T09:42:53.996Z,4.01
2023-04-05T09:46:56.008Z,4.09
2023-04-05T09:51:12.525Z,4.29
2023-04-05T09:55:26.752Z,4.32
2023-04-05T09:59:28.986Z,4.25
2023-04-05T10:03:31.128Z,4.23
2023-04-05T10:07:34.506Z,4.28
2023-04-05T10:11:38.597Z,4.34
2023-04-05T10:15:45.725Z,4.38
2023-04-05T10:19:56.581Z,4.30
2023-04-05T10:24:10.357Z,4.34
2023-04-05T10:28:22.273Z,4.61
2023-04-05T10:32:38.656Z,4.81
2023-04-05T10:37:03.277Z,4.91
2023-04-05T10:41:14.957Z,5.02
2023-04-05T10:45:19.848Z,5.18
2023-04-05T10:49:39.860Z,5.18
2023-04-05T10:53:42.212Z,5.11
2023-04-05T10:57:46.166Z,5.26
2023-04-05T11:01:48.737Z,5.34
2023-04-05T11:06:22.596Z,5.47
2023-04-05T11:10:25.316Z,5.53
2023-04-05T11:14:37.356Z,5.74
2023-04-05T11:18:46.179Z,5.95
2023-04-05T11:22:54.324Z,5.98
2023-04-05T11:26:56.681Z,6.03
2023-04-05T11:31:12.867Z,6.18
2023-04-05T11:35:25.042Z,6.35
2023-04-05T11:39:27.752Z,6.43
2023-04-05T11:43:30.160Z,6.37
2023-04-05T11:47:36.903Z,6.31
2023-04-05T11:51:42.682Z,6.28
2023-04-05T11:55:46.882Z,6.46
2023-04-05T11:59:53.253Z,6.78
2023-04-05T12:03:56.578Z,6.95
2023-04-05T12:07:58.644Z,7.11
2023-04-05T12:12:00.622Z,7.00
2023-04-05T12:16:07.599Z,6.98
2023-04-05T12:20:11.623Z,7.17
2023-04-05T12:24:13.890Z,7.35
2023-04-05T12:28:16.123Z,7.51
2023-04-05T12:32:18.497Z,7.56
2023-04-05T12:36:23.490Z,7.66
2023-04-05T12:40:25.783Z,7.75
2023-04-05T12:44:30.056Z,7.89
2023-04-05T12:48:32.074Z,7.99
2023-04-05T12:52:34.086Z,8.09
2023-04-05T12:56:38.256Z,8.18
2023-04-05T13:00:40.837Z,8.15
2023-04-05T13:04:42.948Z,8.13
2023-04-05T13:08:44.944Z,8.35
2023-04-05T13:12:47.415Z,8.47
2023-04-05T13:16:49.394Z,8.52
2023-04-05T13:20:51.441Z,8.66
2023-04-05T13:24:53.898Z,8.71
2023-04-05T13:28:55.947Z,8.76
2023-04-05T13:32:58.118Z,8.42
2023-04-05T13:37:00.378Z,8.39
2023-04-05T13:41:02.399Z,8.51
2023-04-05T13:45:05.269Z,8.61
2023-04-05T13:49:07.244Z,8.44
2023-04-05T13:53:09.350Z,8.29
2023-04-05T13:57:11.952Z,8.29
2023-04-05T14:01:13.988Z,8.14
2023-04-05T14:05:17.096Z,8.25
2023-04-05T14:09:19.102Z,8.38
2023-04-05T14:13:21.388Z,8.38
2023-04-05T14:17:23.488Z,8.44
2023-04-05T14:21:26.180Z,8.58
2023-04-05T14:25:28.149Z,8.46
2023-04-05T14:29:30.168Z,8.20
2023-04-05T14:33:32.139Z,8.27
2023-04-05T14:37:34.136Z,8.38
2023-04-05T14:41:36.435Z,8.52
2023-04-05T14:45:38.638Z,8.64
2023-04-05T14:49:40.733Z,8.61
2023-04-05T14:53:42.854Z,8.59
2023-04-05T14:57:44.942Z,8.53
2023-04-05T15:01:47.321Z,8.48
2023-04-05T15:05:49.426Z,8.46
2023-04-05T15:09:51.566Z,8.57
2023-04-05T15:13:53.699Z,8.54
2023-04-05T15:17:55.898Z,8.47
2023-04-05T15:21:58.002Z,8.44
2023-04-05T15:25:59.988Z,8.29
2023-04-05T15:30:02.129Z,8.34
2023-04-05T15:34:05.301Z,8.18
2023-04-05T15:38:08.347Z,8.32
2023-04-05T15:42:10.601Z,8.37
2023-04-05T15:46:12.620Z,8.25
2023-04-05T15:50:14.660Z,7.81
2023-04-05T15:54:18.849Z,7.66
2023-04-05T15:58:21.011Z,7.67
2023-04-05T16:02:23.242Z,7.67
2023-04-05T16:06:28.131Z,7.60
2023-04-05T16:10:30.223Z,7.51
2023-04-05T16:14:32.815Z,7.36
2023-04-05T16:18:34.800Z,7.26
2023-04-05T16:22:36.977Z,7.22
2023-04-05T16:26:38.941Z,7.37
2023-04-05T16:30:41.638Z,7.44
2023-04-05T16:34:43.715Z,7.30
2023-04-05T16:38:47.477Z,7.31
2023-04-05T16:42:49.516Z,7.32
2023-04-05T16:46:52.326Z,7.40
2023-04-05T16:50:54.328Z,7.30
2023-04-05T16:54:57.311Z,7.06
2023-04-05T16:58:59.495Z,6.95
2023-04-05T17:03:01.971Z,6.90
2023-04-05T17:07:04.095Z,6.89
2023-04-05T17:11:06.747Z,6.82
2023-04-05T17:15:10.436Z,6.73
2023-04-05T17:19:12.436Z,6.60
2023-04-05T17:23:14.493Z,6.58
2023-04-05T17:27:16.505Z,6.56
2023-04-05T17:31:19.304Z,6.55
2023-04-05T17:35:21.607Z,6.51
2023-04-05T17:39:25.474Z,6.41
2023-04-05T17:43:27.513Z,6.30
2023-04-05T17:47:29.593Z,6.21
2023-04-05T17:51:32.334Z,6.14
2023-04-05T17:55:34.392Z,6.02
2023-04-05T17:59:36.448Z,5.94
2023-04-05T18:03:38.557Z,5.78
2023-04-05T18:07:42.439Z,5.56
2023-04-05T18:11:44.460Z,5.31
2023-04-05T18:15:46.554Z,5.16
2023-04-05T18:19:49.425Z,5.00
2023-04-05T18:23:52.732Z,4.82
2023-04-05T18:27:55.889Z,4.61
2023-04-05T18:31:58.062Z,4.41
2023-04-05T18:36:00.273Z,4.21
2023-04-05T18:40:06.234Z,4.04
2023-04-05T18:44:09.063Z,4.00
2023-04-05T18:48:11.426Z,3.94
2023-04-05T18:52:13.522Z,3.88
2023-04-05T18:56:16.348Z,3.82
2023-04-05T19:00:18.537Z,3.60
2023-04-05T19:04:20.699Z,3.46
2023-04-05T19:08:22.733Z,3.41
2023-04-05T19:12:24.747Z,3.30
2023-04-05T19:16:26.927Z,3.17
2023-04-05T19:20:28.936Z,3.08
2023-04-05T19:24:31.134Z,3.02
2023-04-05T19:28:33.178Z,2.99
2023-04-05T19:32:35.264Z,2.89
2023-04-05T19:36:38.079Z,2.81
2023-04-05T19:40:42.124Z,2.73
2023-04-05T19:44:54.957Z,2.64
2023-04-05T19:49:07.642Z,2.53
2023-04-05T19:53:09.777Z,2.46
2023-04-05T19:57:17.830Z,2.52
2023-04-05T20:01:29.167Z,2.41
2023-04-05T20:05:43.430Z,2.36
2023-04-05T20:09:45.536Z,2.33
2023-04-05T20:13:49.150Z,2.34
2023-04-05T20:17:51.387Z,2.26
2023-04-05T20:21:53.442Z,2.18
2023-04-05T20:25:55.852Z,2.08
2023-04-05T20:29:57.864Z,1.95
2023-04-05T20:34:12.620Z,1.91
2023-04-05T20:38:14.577Z,1.82
2023-04-05T20:42:16.587Z,1.78
2023-04-05T20:46:18.588Z,1.76
2023-04-05T20:50:20.580Z,1.67
2023-04-05T20:54:22.913Z,1.59
2023-04-05T20:58:24.963Z,1.40
2023-04-05T21:02:27.015Z,1.06
2023-04-05T21:06:29.064Z,0.96
2023-04-05T21:10:32.578Z,1.00
2023-04-05T21:14:34.541Z,0.92
2023-04-05T21:18:36.607Z,0.87
2023-04-05T21:22:38.655Z,0.79
2023-04-05T21:26:40.619Z,0.72
2023-04-05T21:30:43.226Z,0.48
2023-04-05T21:34:45.352Z,0.31
2023-04-05T21:38:47.334Z,0.30
2023-04-05T21:42:49.322Z,0.26
2023-04-05T21:46:51.329Z,0.31
2023-04-05T21:50:53.395Z,0.42
2023-04-05T21:54:55.632Z,0.27
2023-04-05T21:58:57.693Z,0.29
2023-04-05T22:03:00.130Z,0.35
2023-04-05T22:07:02.211Z,0.28
2023-04-05T22:11:04.196Z,0.08
2023-04-05T22:15:06.659Z,-0.12
2023-04-05T22:19:11.638Z,-0.15
2023-04-05T22:23:13.617Z,-0.11
2023-04-05T22:27:15.715Z,-0.12
2023-04-05T22:31:17.700Z,-0.13
2023-04-05T22:35:19.683Z,-0.19
2023-04-05T22:39:21.713Z,-0.34
2023-04-05T22:43:24.053Z,-0.44
2023-04-05T22:47:26.435Z,-0.41
2023-04-05T22:51:29.449Z,-0.49
2023-04-05T22:55:31.426Z,-0.64
2023-04-05T22:59:33.477Z,-0.70
2023-04-05T23:03:35.734Z,-0.67
2023-04-05T23:07:37.794Z,-0.56
2023-04-05T23:11:39.822Z,-0.69
2023-04-05T23:15:41.865Z,-0.70
2023-04-05T23:19:44.076Z,-0.79
2023-04-05T23:23:46.088Z,-0.75
2023-04-05T23:27:48.149Z,-0.69
2023-04-05T23:31:50.318Z,-0.63
2023-04-05T23:35:52.459Z,-0.71
2023-04-05T23:39:54.463Z,-0.94
2023-04-05T23:43:56.839Z,-0.99
2023-04-05T23:47:58.856Z,-0.89
2023-04-05T23:52:00.901Z,-0.82
2023-04-05T23:56:03.067Z,-0.97
